sensor_id;sensor_type;location;lat;lon;timestamp;temperature;humidity
18126;DHT22;53956;52.442;13.284;2023-07-13T00:01:34;24.80;71.50
18126;DHT22;53956;52.442;13.284;2023-07-13T00:04:02;24.80;70.50
18126;DHT22;53956;52.442;13.284;2023-07-13T00:06:29;24.80;71.20
18126;DHT22;53956;52.442;13.284;2023-07-13T00:08:58;24.60;71.40
18126;DHT22;53956;52.442;13.284;2023-07-13T00:11:25;24.70;70.60
18126;DHT22;53956;52.442;13.284;2023-07-13T00:13:52;24.80;70.90
18126;DHT22;53956;52.442;13.284;2023-07-13T00:16:18;24.60;70.50
18126;DHT22;53956;52.442;13.284;2023-07-13T00:18:46;24.70;70.70
18126;DHT22;53956;52.442;13.284;2023-07-13T00:21:14;24.70;70.40
18126;DHT22;53956;52.442;13.284;2023-07-13T00:23:42;24.70;70.80
18126;DHT22;53956;52.442;13.284;2023-07-13T00:26:10;24.70;71.30
18126;DHT22;53956;52.442;13.284;2023-07-13T00:28:37;24.60;71.10
18126;DHT22;53956;52.442;13.284;2023-07-13T00:31:05;24.60;71.50
18126;DHT22;53956;52.442;13.284;2023-07-13T00:33:32;24.60;71.10
18126;DHT22;53956;52.442;13.284;2023-07-13T00:35:59;24.50;71.80
18126;DHT22;53956;52.442;13.284;2023-07-13T00:38:27;24.50;71.20
18126;DHT22;53956;52.442;13.284;2023-07-13T00:40:54;24.50;72.20
18126;DHT22;53956;52.442;13.284;2023-07-13T00:43:22;24.50;71.40
18126;DHT22;53956;52.442;13.284;2023-07-13T00:46:19;24.50;71.90
18126;DHT22;53956;52.442;13.284;2023-07-13T00:48:48;24.50;71.90
18126;DHT22;53956;52.442;13.284;2023-07-13T00:51:20;24.40;72.10
18126;DHT22;53956;52.442;13.284;2023-07-13T00:53:50;24.10;72.40
18126;DHT22;53956;52.442;13.284;2023-07-13T00:56:19;24.20;73.60
18126;DHT22;53956;52.442;13.284;2023-07-13T00:58:46;24.20;73.00
18126;DHT22;53956;52.442;13.284;2023-07-13T01:01:12;24.30;72.80
18126;DHT22;53956;52.442;13.284;2023-07-13T01:03:40;24.10;72.90
18126;DHT22;53956;52.442;13.284;2023-07-13T01:06:07;24.10;73.80
18126;DHT22;53956;52.442;13.284;2023-07-13T01:08:34;24.10;73.90
18126;DHT22;53956;52.442;13.284;2023-07-13T01:11:02;24.10;74.00
18126;DHT22;53956;52.442;13.284;2023-07-13T01:13:28;24.00;74.30
18126;DHT22;53956;52.442;13.284;2023-07-13T01:15:58;23.90;74.60
18126;DHT22;53956;52.442;13.284;2023-07-13T01:18:28;24.00;74.90
18126;DHT22;53956;52.442;13.284;2023-07-13T01:20:58;23.90;74.90
18126;DHT22;53956;52.442;13.284;2023-07-13T01:23:27;23.90;74.50
18126;DHT22;53956;52.442;13.284;2023-07-13T01:25:55;23.80;75.10
18126;DHT22;53956;52.442;13.284;2023-07-13T01:28:24;23.80;75.10
18126;DHT22;53956;52.442;13.284;2023-07-13T01:30:53;23.80;75.30
18126;DHT22;53956;52.442;13.284;2023-07-13T01:33:20;23.80;74.90
18126;DHT22;53956;52.442;13.284;2023-07-13T01:35:47;23.90;75.40
18126;DHT22;53956;52.442;13.284;2023-07-13T01:38:19;23.80;75.10
18126;DHT22;53956;52.442;13.284;2023-07-13T01:40:46;23.70;75.60
18126;DHT22;53956;52.442;13.284;2023-07-13T01:43:13;23.60;77.40
18126;DHT22;53956;52.442;13.284;2023-07-13T01:45:39;23.60;76.10
18126;DHT22;53956;52.442;13.284;2023-07-13T01:48:06;23.60;77.80
18126;DHT22;53956;52.442;13.284;2023-07-13T01:50:33;23.60;77.70
18126;DHT22;53956;52.442;13.284;2023-07-13T01:53:00;23.70;77.20
18126;DHT22;53956;52.442;13.284;2023-07-13T01:55:29;23.70;77.00
18126;DHT22;53956;52.442;13.284;2023-07-13T01:57:56;23.70;77.00
18126;DHT22;53956;52.442;13.284;2023-07-13T02:00:23;23.70;76.70
18126;DHT22;53956;52.442;13.284;2023-07-13T02:02:50;23.70;76.70
18126;DHT22;53956;52.442;13.284;2023-07-13T02:05:17;23.70;77.10
18126;DHT22;53956;52.442;13.284;2023-07-13T02:07:44;23.60;77.30
18126;DHT22;53956;52.442;13.284;2023-07-13T02:10:11;23.70;77.40
18126;DHT22;53956;52.442;13.284;2023-07-13T02:12:40;23.60;78.80
18126;DHT22;53956;52.442;13.284;2023-07-13T02:15:08;23.50;79.20
18126;DHT22;53956;52.442;13.284;2023-07-13T02:17:35;23.50;79.30
18126;DHT22;53956;52.442;13.284;2023-07-13T02:20:03;23.50;79.60
18126;DHT22;53956;52.442;13.284;2023-07-13T02:22:30;23.50;79.80
18126;DHT22;53956;52.442;13.284;2023-07-13T02:24:57;23.40;79.90
18126;DHT22;53956;52.442;13.284;2023-07-13T02:27:24;23.40;80.20
18126;DHT22;53956;52.442;13.284;2023-07-13T02:29:52;23.60;79.60
18126;DHT22;53956;52.442;13.284;2023-07-13T02:32:21;23.60;79.70
18126;DHT22;53956;52.442;13.284;2023-07-13T02:34:47;23.60;80.90
18126;DHT22;53956;52.442;13.284;2023-07-13T02:37:14;23.50;80.20
18126;DHT22;53956;52.442;13.284;2023-07-13T02:39:46;23.70;78.70
18126;DHT22;53956;52.442;13.284;2023-07-13T02:42:13;23.70;78.40
18126;DHT22;53956;52.442;13.284;2023-07-13T02:44:40;23.60;80.00
18126;DHT22;53956;52.442;13.284;2023-07-13T02:47:08;23.50;80.30
18126;DHT22;53956;52.442;13.284;2023-07-13T02:49:35;23.40;80.50
18126;DHT22;53956;52.442;13.284;2023-07-13T02:52:02;23.30;81.00
18126;DHT22;53956;52.442;13.284;2023-07-13T02:54:28;23.30;81.20
18126;DHT22;53956;52.442;13.284;2023-07-13T02:56:55;23.20;81.30
18126;DHT22;53956;52.442;13.284;2023-07-13T02:59:22;23.20;81.60
18126;DHT22;53956;52.442;13.284;2023-07-13T03:01:49;23.30;81.90
18126;DHT22;53956;52.442;13.284;2023-07-13T03:04:17;23.20;81.80
18126;DHT22;53956;52.442;13.284;2023-07-13T03:06:45;23.10;82.00
18126;DHT22;53956;52.442;13.284;2023-07-13T03:09:12;23.20;82.00
18126;DHT22;53956;52.442;13.284;2023-07-13T03:11:42;23.20;81.40
18126;DHT22;53956;52.442;13.284;2023-07-13T03:14:26;23.20;81.70
18126;DHT22;53956;52.442;13.284;2023-07-13T03:16:53;23.20;81.70
18126;DHT22;53956;52.442;13.284;2023-07-13T03:19:24;23.20;81.90
18126;DHT22;53956;52.442;13.284;2023-07-13T03:21:51;23.20;81.70
18126;DHT22;53956;52.442;13.284;2023-07-13T03:24:19;23.10;82.50
18126;DHT22;53956;52.442;13.284;2023-07-13T03:26:46;23.20;81.80
18126;DHT22;53956;52.442;13.284;2023-07-13T03:29:12;23.30;81.60
18126;DHT22;53956;52.442;13.284;2023-07-13T03:31:40;23.20;82.10
18126;DHT22;53956;52.442;13.284;2023-07-13T03:34:06;23.30;82.40
18126;DHT22;53956;52.442;13.284;2023-07-13T03:36:36;23.40;81.70
18126;DHT22;53956;52.442;13.284;2023-07-13T03:39:05;23.30;82.00
18126;DHT22;53956;52.442;13.284;2023-07-13T03:41:45;23.30;82.40
18126;DHT22;53956;52.442;13.284;2023-07-13T03:44:13;23.30;82.80
18126;DHT22;53956;52.442;13.284;2023-07-13T03:46:39;23.50;82.10
18126;DHT22;53956;52.442;13.284;2023-07-13T03:49:07;23.50;82.20
18126;DHT22;53956;52.442;13.284;2023-07-13T03:51:36;23.50;82.30
18126;DHT22;53956;52.442;13.284;2023-07-13T03:54:04;23.50;82.30
18126;DHT22;53956;52.442;13.284;2023-07-13T03:56:31;23.50;82.10
18126;DHT22;53956;52.442;13.284;2023-07-13T03:59:00;23.50;82.00
18126;DHT22;53956;52.442;13.284;2023-07-13T04:01:29;23.50;82.40
18126;DHT22;53956;52.442;13.284;2023-07-13T04:03:56;23.40;83.10
18126;DHT22;53956;52.442;13.284;2023-07-13T04:06:26;23.40;83.40
18126;DHT22;53956;52.442;13.284;2023-07-13T04:08:56;23.40;83.50
18126;DHT22;53956;52.442;13.284;2023-07-13T04:11:26;23.40;83.60
18126;DHT22;53956;52.442;13.284;2023-07-13T04:13:54;23.50;83.60
18126;DHT22;53956;52.442;13.284;2023-07-13T04:16:21;23.30;84.40
18126;DHT22;53956;52.442;13.284;2023-07-13T04:18:49;23.40;85.10
18126;DHT22;53956;52.442;13.284;2023-07-13T04:21:16;23.40;84.40
18126;DHT22;53956;52.442;13.284;2023-07-13T04:23:43;23.50;84.70
18126;DHT22;53956;52.442;13.284;2023-07-13T04:26:11;23.50;84.50
18126;DHT22;53956;52.442;13.284;2023-07-13T04:28:37;23.50;84.50
18126;DHT22;53956;52.442;13.284;2023-07-13T04:31:04;23.70;82.90
18126;DHT22;53956;52.442;13.284;2023-07-13T04:33:31;23.70;82.70
18126;DHT22;53956;52.442;13.284;2023-07-13T04:35:58;23.80;82.30
18126;DHT22;53956;52.442;13.284;2023-07-13T04:38:26;23.80;82.10
18126;DHT22;53956;52.442;13.284;2023-07-13T04:40:55;23.90;82.20
18126;DHT22;53956;52.442;13.284;2023-07-13T04:43:23;23.90;82.50
18126;DHT22;53956;52.442;13.284;2023-07-13T04:45:50;24.10;81.50
18126;DHT22;53956;52.442;13.284;2023-07-13T04:48:17;24.00;81.50
18126;DHT22;53956;52.442;13.284;2023-07-13T04:50:44;24.20;81.10
18126;DHT22;53956;52.442;13.284;2023-07-13T04:53:11;24.40;80.60
18126;DHT22;53956;52.442;13.284;2023-07-13T04:55:38;24.90;79.50
18126;DHT22;53956;52.442;13.284;2023-07-13T04:58:06;25.50;77.80
18126;DHT22;53956;52.442;13.284;2023-07-13T05:00:34;26.00;75.90
18126;DHT22;53956;52.442;13.284;2023-07-13T05:03:02;26.50;72.50
18126;DHT22;53956;52.442;13.284;2023-07-13T05:05:29;27.00;71.40
18126;DHT22;53956;52.442;13.284;2023-07-13T05:07:55;27.40;69.90
18126;DHT22;53956;52.442;13.284;2023-07-13T05:10:22;27.60;69.10
18126;DHT22;53956;52.442;13.284;2023-07-13T05:12:49;27.90;67.70
18126;DHT22;53956;52.442;13.284;2023-07-13T05:15:16;28.20;66.90
18126;DHT22;53956;52.442;13.284;2023-07-13T05:17:47;28.30;65.80
18126;DHT22;53956;52.442;13.284;2023-07-13T05:20:14;28.70;65.10
18126;DHT22;53956;52.442;13.284;2023-07-13T05:22:41;28.80;65.00
18126;DHT22;53956;52.442;13.284;2023-07-13T05:25:09;29.10;62.70
18126;DHT22;53956;52.442;13.284;2023-07-13T05:27:36;29.30;63.00
18126;DHT22;53956;52.442;13.284;2023-07-13T05:30:03;29.50;62.10
18126;DHT22;53956;52.442;13.284;2023-07-13T05:32:30;29.70;61.10
18126;DHT22;53956;52.442;13.284;2023-07-13T05:34:58;30.00;61.10
18126;DHT22;53956;52.442;13.284;2023-07-13T05:37:25;30.30;60.10
18126;DHT22;53956;52.442;13.284;2023-07-13T05:39:52;30.50;59.30
18126;DHT22;53956;52.442;13.284;2023-07-13T05:42:18;30.60;59.60
18126;DHT22;53956;52.442;13.284;2023-07-13T05:44:45;30.70;59.70
18126;DHT22;53956;52.442;13.284;2023-07-13T05:47:11;31.30;58.10
18126;DHT22;53956;52.442;13.284;2023-07-13T05:49:39;31.30;57.30
18126;DHT22;53956;52.442;13.284;2023-07-13T05:52:08;31.50;57.20
18126;DHT22;53956;52.442;13.284;2023-07-13T05:54:35;31.80;57.10
18126;DHT22;53956;52.442;13.284;2023-07-13T05:57:01;32.00;55.30
18126;DHT22;53956;52.442;13.284;2023-07-13T05:59:28;32.20;55.10
18126;DHT22;53956;52.442;13.284;2023-07-13T06:01:54;32.20;54.40
18126;DHT22;53956;52.442;13.284;2023-07-13T06:04:21;32.20;54.50
18126;DHT22;53956;52.442;13.284;2023-07-13T06:06:48;32.50;54.60
18126;DHT22;53956;52.442;13.284;2023-07-13T06:09:15;32.70;54.20
18126;DHT22;53956;52.442;13.284;2023-07-13T06:11:42;33.00;53.70
18126;DHT22;53956;52.442;13.284;2023-07-13T06:14:10;33.40;52.80
18126;DHT22;53956;52.442;13.284;2023-07-13T06:16:37;33.50;51.70
18126;DHT22;53956;52.442;13.284;2023-07-13T06:19:03;33.60;51.40
18126;DHT22;53956;52.442;13.284;2023-07-13T06:21:30;33.60;51.40
18126;DHT22;53956;52.442;13.284;2023-07-13T06:23:56;33.60;51.70
18126;DHT22;53956;52.442;13.284;2023-07-13T06:26:24;33.70;51.80
18126;DHT22;53956;52.442;13.284;2023-07-13T06:28:51;33.90;51.30
18126;DHT22;53956;52.442;13.284;2023-07-13T06:31:17;34.10;50.40
18126;DHT22;53956;52.442;13.284;2023-07-13T06:33:44;34.20;50.70
18126;DHT22;53956;52.442;13.284;2023-07-13T06:36:11;34.20;49.70
18126;DHT22;53956;52.442;13.284;2023-07-13T06:38:38;34.40;49.50
18126;DHT22;53956;52.442;13.284;2023-07-13T06:41:06;34.60;48.30
18126;DHT22;53956;52.442;13.284;2023-07-13T06:43:34;34.50;49.80
18126;DHT22;53956;52.442;13.284;2023-07-13T06:46:01;34.40;49.80
18126;DHT22;53956;52.442;13.284;2023-07-13T06:48:28;34.10;50.00
18126;DHT22;53956;52.442;13.284;2023-07-13T06:50:54;34.00;49.60
18126;DHT22;53956;52.442;13.284;2023-07-13T06:53:22;33.70;50.40
18126;DHT22;53956;52.442;13.284;2023-07-13T06:55:48;33.60;50.90
18126;DHT22;53956;52.442;13.284;2023-07-13T06:58:16;33.70;50.90
18126;DHT22;53956;52.442;13.284;2023-07-13T07:00:45;33.60;51.00
18126;DHT22;53956;52.442;13.284;2023-07-13T07:03:12;33.50;51.80
18126;DHT22;53956;52.442;13.284;2023-07-13T07:05:39;33.50;51.20
18126;DHT22;53956;52.442;13.284;2023-07-13T07:08:05;33.50;52.00
18126;DHT22;53956;52.442;13.284;2023-07-13T07:10:34;33.30;50.90
18126;DHT22;53956;52.442;13.284;2023-07-13T07:13:00;33.20;51.30
18126;DHT22;53956;52.442;13.284;2023-07-13T07:15:28;32.90;51.10
18126;DHT22;53956;52.442;13.284;2023-07-13T07:17:56;32.80;51.00
18126;DHT22;53956;52.442;13.284;2023-07-13T07:20:23;32.90;51.10
18126;DHT22;53956;52.442;13.284;2023-07-13T07:22:49;32.50;51.40
18126;DHT22;53956;52.442;13.284;2023-07-13T07:25:16;32.60;50.70
18126;DHT22;53956;52.442;13.284;2023-07-13T07:27:43;32.60;50.60
18126;DHT22;53956;52.442;13.284;2023-07-13T07:30:11;32.90;51.30
18126;DHT22;53956;52.442;13.284;2023-07-13T07:32:37;32.80;51.40
18126;DHT22;53956;52.442;13.284;2023-07-13T07:35:06;32.80;51.40
18126;DHT22;53956;52.442;13.284;2023-07-13T07:37:33;32.70;51.00
18126;DHT22;53956;52.442;13.284;2023-07-13T07:40:00;32.50;50.90
18126;DHT22;53956;52.442;13.284;2023-07-13T07:42:26;32.10;50.80
18126;DHT22;53956;52.442;13.284;2023-07-13T07:44:53;31.70;52.60
18126;DHT22;53956;52.442;13.284;2023-07-13T07:47:19;31.40;53.10
18126;DHT22;53956;52.442;13.284;2023-07-13T07:49:46;31.40;53.40
18126;DHT22;53956;52.442;13.284;2023-07-13T07:52:14;30.90;54.20
18126;DHT22;53956;52.442;13.284;2023-07-13T07:54:40;30.80;54.10
18126;DHT22;53956;52.442;13.284;2023-07-13T07:57:07;30.40;54.90
18126;DHT22;53956;52.442;13.284;2023-07-13T07:59:36;30.00;55.30
18126;DHT22;53956;52.442;13.284;2023-07-13T08:02:03;29.80;56.20
18126;DHT22;53956;52.442;13.284;2023-07-13T08:04:29;29.50;56.20
18126;DHT22;53956;52.442;13.284;2023-07-13T08:06:56;29.40;56.60
18126;DHT22;53956;52.442;13.284;2023-07-13T08:09:24;29.50;56.10
18126;DHT22;53956;52.442;13.284;2023-07-13T08:11:51;29.60;54.80
18126;DHT22;53956;52.442;13.284;2023-07-13T08:14:18;29.60;54.00
18126;DHT22;53956;52.442;13.284;2023-07-13T08:16:44;29.40;53.30
18126;DHT22;53956;52.442;13.284;2023-07-13T08:19:11;29.40;53.40
18126;DHT22;53956;52.442;13.284;2023-07-13T08:21:37;29.20;54.40
18126;DHT22;53956;52.442;13.284;2023-07-13T08:24:04;29.00;56.70
18126;DHT22;53956;52.442;13.284;2023-07-13T08:26:32;29.10;55.40
18126;DHT22;53956;52.442;13.284;2023-07-13T08:28:59;29.10;56.40
18126;DHT22;53956;52.442;13.284;2023-07-13T08:31:26;29.00;57.60
18126;DHT22;53956;52.442;13.284;2023-07-13T08:33:53;28.90;56.40
18126;DHT22;53956;52.442;13.284;2023-07-13T08:36:19;28.80;55.90
18126;DHT22;53956;52.442;13.284;2023-07-13T08:38:46;28.70;56.80
18126;DHT22;53956;52.442;13.284;2023-07-13T08:41:15;28.60;56.90
18126;DHT22;53956;52.442;13.284;2023-07-13T08:43:46;28.50;57.30
18126;DHT22;53956;52.442;13.284;2023-07-13T08:46:19;28.60;58.30
18126;DHT22;53956;52.442;13.284;2023-07-13T08:48:50;28.70;58.10
18126;DHT22;53956;52.442;13.284;2023-07-13T08:51:26;29.20;57.80
18126;DHT22;53956;52.442;13.284;2023-07-13T08:53:58;29.60;56.60
18126;DHT22;53956;52.442;13.284;2023-07-13T08:56:28;29.80;56.10
18126;DHT22;53956;52.442;13.284;2023-07-13T08:58:58;30.00;55.80
18126;DHT22;53956;52.442;13.284;2023-07-13T09:01:31;30.20;54.70
18126;DHT22;53956;52.442;13.284;2023-07-13T09:04:04;30.10;55.40
18126;DHT22;53956;52.442;13.284;2023-07-13T09:06:42;30.20;55.20
18126;DHT22;53956;52.442;13.284;2023-07-13T09:09:19;30.00;54.30
18126;DHT22;53956;52.442;13.284;2023-07-13T09:11:52;29.90;54.60
18126;DHT22;53956;52.442;13.284;2023-07-13T09:14:35;30.10;54.90
18126;DHT22;53956;52.442;13.284;2023-07-13T09:17:05;30.10;54.50
18126;DHT22;53956;52.442;13.284;2023-07-13T09:19:33;29.90;55.00
18126;DHT22;53956;52.442;13.284;2023-07-13T09:22:02;30.00;54.40
18126;DHT22;53956;52.442;13.284;2023-07-13T09:24:37;30.00;54.70
18126;DHT22;53956;52.442;13.284;2023-07-13T09:27:11;29.80;54.30
18126;DHT22;53956;52.442;13.284;2023-07-13T09:29:47;29.80;55.30
18126;DHT22;53956;52.442;13.284;2023-07-13T09:32:18;29.50;54.50
18126;DHT22;53956;52.442;13.284;2023-07-13T09:34:50;29.20;55.80
18126;DHT22;53956;52.442;13.284;2023-07-13T09:37:19;29.00;55.50
18126;DHT22;53956;52.442;13.284;2023-07-13T09:39:49;29.00;56.40
18126;DHT22;53956;52.442;13.284;2023-07-13T09:42:19;29.20;55.50
18126;DHT22;53956;52.442;13.284;2023-07-13T09:44:53;29.20;53.10
18126;DHT22;53956;52.442;13.284;2023-07-13T09:47:22;29.10;53.50
18126;DHT22;53956;52.442;13.284;2023-07-13T09:49:55;29.00;53.10
18126;DHT22;53956;52.442;13.284;2023-07-13T09:52:24;28.90;54.30
18126;DHT22;53956;52.442;13.284;2023-07-13T09:54:51;28.90;54.80
18126;DHT22;53956;52.442;13.284;2023-07-13T09:57:23;28.70;53.60
18126;DHT22;53956;52.442;13.284;2023-07-13T09:59:54;28.70;52.20
18126;DHT22;53956;52.442;13.284;2023-07-13T10:02:27;29.00;53.00
18126;DHT22;53956;52.442;13.284;2023-07-13T10:04:59;29.20;50.60
18126;DHT22;53956;52.442;13.284;2023-07-13T10:07:26;28.90;52.40
18126;DHT22;53956;52.442;13.284;2023-07-13T10:09:53;28.90;52.40
18126;DHT22;53956;52.442;13.284;2023-07-13T10:12:21;29.10;51.10
18126;DHT22;53956;52.442;13.284;2023-07-13T10:14:52;29.30;51.60
18126;DHT22;53956;52.442;13.284;2023-07-13T10:17:27;29.30;52.00
18126;DHT22;53956;52.442;13.284;2023-07-13T10:19:57;29.00;52.60
18126;DHT22;53956;52.442;13.284;2023-07-13T10:22:29;29.00;53.10
18126;DHT22;53956;52.442;13.284;2023-07-13T10:24:57;29.00;51.70
18126;DHT22;53956;52.442;13.284;2023-07-13T10:27:32;29.10;51.50
18126;DHT22;53956;52.442;13.284;2023-07-13T10:30:04;28.90;51.80
18126;DHT22;53956;52.442;13.284;2023-07-13T10:32:34;28.70;52.70
18126;DHT22;53956;52.442;13.284;2023-07-13T10:35:00;28.70;52.80
18126;DHT22;53956;52.442;13.284;2023-07-13T10:37:31;28.70;53.20
18126;DHT22;53956;52.442;13.284;2023-07-13T10:39:59;28.60;53.00
18126;DHT22;53956;52.442;13.284;2023-07-13T10:42:32;28.70;52.00
18126;DHT22;53956;52.442;13.284;2023-07-13T10:45:01;28.90;52.30
18126;DHT22;53956;52.442;13.284;2023-07-13T10:47:28;28.80;52.60
18126;DHT22;53956;52.442;13.284;2023-07-13T10:49:56;28.70;51.50
18126;DHT22;53956;52.442;13.284;2023-07-13T10:52:51;28.80;51.70
18126;DHT22;53956;52.442;13.284;2023-07-13T10:55:37;29.00;51.10
18126;DHT22;53956;52.442;13.284;2023-07-13T10:58:13;28.80;49.60
18126;DHT22;53956;52.442;13.284;2023-07-13T11:00:47;28.60;48.20
18126;DHT22;53956;52.442;13.284;2023-07-13T11:03:18;28.70;47.40
18126;DHT22;53956;52.442;13.284;2023-07-13T11:05:49;28.80;46.60
18126;DHT22;53956;52.442;13.284;2023-07-13T11:08:20;28.90;46.70
18126;DHT22;53956;52.442;13.284;2023-07-13T11:10:51;29.00;47.10
18126;DHT22;53956;52.442;13.284;2023-07-13T11:22:20;29.20;47.80
18126;DHT22;53956;52.442;13.284;2023-07-13T11:24:59;29.00;48.30
18126;DHT22;53956;52.442;13.284;2023-07-13T11:27:36;29.10;48.10
18126;DHT22;53956;52.442;13.284;2023-07-13T11:30:13;29.00;49.40
18126;DHT22;53956;52.442;13.284;2023-07-13T11:32:44;29.20;49.30
18126;DHT22;53956;52.442;13.284;2023-07-13T11:35:19;29.10;50.80
18126;DHT22;53956;52.442;13.284;2023-07-13T11:37:48;28.90;50.80
18126;DHT22;53956;52.442;13.284;2023-07-13T11:40:15;28.90;50.80
18126;DHT22;53956;52.442;13.284;2023-07-13T11:42:42;28.90;50.80
18126;DHT22;53956;52.442;13.284;2023-07-13T11:45:19;28.90;49.60
18126;DHT22;53956;52.442;13.284;2023-07-13T11:47:48;28.90;49.20
18126;DHT22;53956;52.442;13.284;2023-07-13T11:50:21;29.00;49.90
18126;DHT22;53956;52.442;13.284;2023-07-13T11:52:50;28.90;49.80
18126;DHT22;53956;52.442;13.284;2023-07-13T11:55:20;28.90;50.00
18126;DHT22;53956;52.442;13.284;2023-07-13T11:57:51;28.80;50.60
18126;DHT22;53956;52.442;13.284;2023-07-13T12:00:22;28.80;48.50
18126;DHT22;53956;52.442;13.284;2023-07-13T12:02:51;28.90;49.50
18126;DHT22;53956;52.442;13.284;2023-07-13T12:05:20;29.00;50.20
18126;DHT22;53956;52.442;13.284;2023-07-13T12:07:48;29.00;49.00
18126;DHT22;53956;52.442;13.284;2023-07-13T12:10:20;28.90;49.20
18126;DHT22;53956;52.442;13.284;2023-07-13T12:12:51;28.90;49.40
18126;DHT22;53956;52.442;13.284;2023-07-13T12:15:19;28.90;49.50
18126;DHT22;53956;52.442;13.284;2023-07-13T12:17:47;29.00;49.20
18126;DHT22;53956;52.442;13.284;2023-07-13T12:20:25;28.90;49.50
18126;DHT22;53956;52.442;13.284;2023-07-13T12:22:52;29.00;50.10
18126;DHT22;53956;52.442;13.284;2023-07-13T12:25:20;28.90;50.30
18126;DHT22;53956;52.442;13.284;2023-07-13T12:27:48;29.00;51.00
18126;DHT22;53956;52.442;13.284;2023-07-13T12:30:24;29.00;50.50
18126;DHT22;53956;52.442;13.284;2023-07-13T12:33:05;29.10;50.80
18126;DHT22;53956;52.442;13.284;2023-07-13T12:35:40;29.00;49.80
18126;DHT22;53956;52.442;13.284;2023-07-13T12:38:10;28.90;49.70
18126;DHT22;53956;52.442;13.284;2023-07-13T12:40:38;28.90;50.30
18126;DHT22;53956;52.442;13.284;2023-07-13T12:43:10;28.90;50.60
18126;DHT22;53956;52.442;13.284;2023-07-13T12:45:38;28.90;50.90
18126;DHT22;53956;52.442;13.284;2023-07-13T12:48:12;29.00;50.90
18126;DHT22;53956;52.442;13.284;2023-07-13T12:50:43;28.90;50.40
18126;DHT22;53956;52.442;13.284;2023-07-13T12:53:14;28.80;49.40
18126;DHT22;53956;52.442;13.284;2023-07-13T12:55:43;28.70;49.20
18126;DHT22;53956;52.442;13.284;2023-07-13T12:58:17;28.60;49.40
18126;DHT22;53956;52.442;13.284;2023-07-13T13:00:49;28.70;49.70
18126;DHT22;53956;52.442;13.284;2023-07-13T13:03:22;28.70;50.00
18126;DHT22;53956;52.442;13.284;2023-07-13T13:05:58;28.60;49.90
18126;DHT22;53956;52.442;13.284;2023-07-13T13:08:29;28.50;49.50
18126;DHT22;53956;52.442;13.284;2023-07-13T13:10:56;28.50;49.20
18126;DHT22;53956;52.442;13.284;2023-07-13T13:13:22;28.50;49.80
18126;DHT22;53956;52.442;13.284;2023-07-13T13:15:50;28.70;49.90
18126;DHT22;53956;52.442;13.284;2023-07-13T13:18:18;28.50;50.50
18126;DHT22;53956;52.442;13.284;2023-07-13T13:20:45;28.40;50.10
18126;DHT22;53956;52.442;13.284;2023-07-13T13:23:15;28.60;51.40
18126;DHT22;53956;52.442;13.284;2023-07-13T13:25:43;28.60;50.60
18126;DHT22;53956;52.442;13.284;2023-07-13T13:28:14;28.70;50.90
18126;DHT22;53956;52.442;13.284;2023-07-13T13:30:41;28.70;50.30
18126;DHT22;53956;52.442;13.284;2023-07-13T13:33:10;28.60;49.80
18126;DHT22;53956;52.442;13.284;2023-07-13T13:35:37;28.70;49.50
18126;DHT22;53956;52.442;13.284;2023-07-13T13:38:10;28.80;49.70
18126;DHT22;53956;52.442;13.284;2023-07-13T13:40:38;28.80;49.20
18126;DHT22;53956;52.442;13.284;2023-07-13T13:43:14;28.80;49.60
18126;DHT22;53956;52.442;13.284;2023-07-13T13:45:41;28.80;49.60
18126;DHT22;53956;52.442;13.284;2023-07-13T13:48:14;28.90;49.60
18126;DHT22;53956;52.442;13.284;2023-07-13T13:50:41;28.80;49.40
18126;DHT22;53956;52.442;13.284;2023-07-13T13:53:10;28.60;48.90
18126;DHT22;53956;52.442;13.284;2023-07-13T13:55:39;28.60;49.70
18126;DHT22;53956;52.442;13.284;2023-07-13T13:58:08;28.60;49.60
18126;DHT22;53956;52.442;13.284;2023-07-13T14:00:35;28.70;49.90
18126;DHT22;53956;52.442;13.284;2023-07-13T14:03:02;28.70;50.30
18126;DHT22;53956;52.442;13.284;2023-07-13T14:05:28;28.60;49.40
18126;DHT22;53956;52.442;13.284;2023-07-13T14:07:55;28.70;49.80
18126;DHT22;53956;52.442;13.284;2023-07-13T14:10:23;28.60;48.90
18126;DHT22;53956;52.442;13.284;2023-07-13T14:12:53;28.50;48.50
18126;DHT22;53956;52.442;13.284;2023-07-13T14:15:23;28.50;48.70
18126;DHT22;53956;52.442;13.284;2023-07-13T14:17:50;28.50;48.60
18126;DHT22;53956;52.442;13.284;2023-07-13T14:20:19;28.30;48.30
18126;DHT22;53956;52.442;13.284;2023-07-13T14:22:46;28.40;48.10
18126;DHT22;53956;52.442;13.284;2023-07-13T14:25:15;28.50;48.30
18126;DHT22;53956;52.442;13.284;2023-07-13T14:27:43;28.40;48.60
18126;DHT22;53956;52.442;13.284;2023-07-13T14:30:14;28.40;49.10
18126;DHT22;53956;52.442;13.284;2023-07-13T14:32:42;28.40;49.00
18126;DHT22;53956;52.442;13.284;2023-07-13T14:35:11;28.50;49.40
18126;DHT22;53956;52.442;13.284;2023-07-13T14:37:38;28.50;48.70
18126;DHT22;53956;52.442;13.284;2023-07-13T14:40:13;28.50;48.90
18126;DHT22;53956;52.442;13.284;2023-07-13T14:42:40;28.40;49.00
18126;DHT22;53956;52.442;13.284;2023-07-13T14:45:14;28.40;48.80
18126;DHT22;53956;52.442;13.284;2023-07-13T14:47:44;28.50;48.60
18126;DHT22;53956;52.442;13.284;2023-07-13T14:50:16;28.50;49.40
18126;DHT22;53956;52.442;13.284;2023-07-13T14:52:44;28.50;48.70
18126;DHT22;53956;52.442;13.284;2023-07-13T14:55:12;28.50;48.80
18126;DHT22;53956;52.442;13.284;2023-07-13T14:57:39;28.50;48.10
18126;DHT22;53956;52.442;13.284;2023-07-13T15:00:14;28.40;47.40
18126;DHT22;53956;52.442;13.284;2023-07-13T15:02:44;28.60;47.90
18126;DHT22;53956;52.442;13.284;2023-07-13T15:05:15;28.40;47.40
18126;DHT22;53956;52.442;13.284;2023-07-13T15:07:42;28.50;47.80
18126;DHT22;53956;52.442;13.284;2023-07-13T15:10:15;28.60;48.00
18126;DHT22;53956;52.442;13.284;2023-07-13T15:12:42;28.50;46.80
18126;DHT22;53956;52.442;13.284;2023-07-13T15:15:09;28.50;47.60
18126;DHT22;53956;52.442;13.284;2023-07-13T15:17:39;28.40;46.60
18126;DHT22;53956;52.442;13.284;2023-07-13T15:20:17;28.40;47.00
18126;DHT22;53956;52.442;13.284;2023-07-13T15:22:45;28.40;46.80
18126;DHT22;53956;52.442;13.284;2023-07-13T15:25:16;28.40;46.50
18126;DHT22;53956;52.442;13.284;2023-07-13T15:27:43;28.40;45.90
18126;DHT22;53956;52.442;13.284;2023-07-13T15:30:10;28.20;45.40
18126;DHT22;53956;52.442;13.284;2023-07-13T15:32:38;28.40;45.40
18126;DHT22;53956;52.442;13.284;2023-07-13T15:35:13;28.50;46.00